Time;durP1;ratioP1;P1;durP2;ratioP2;P2;SDS_P1;SDS_P2;PMS_P1;PMS_P2;Temp;Humidity;BMP_temperature;BMP_pressure;BME280_temperature;BME280_humidity;BME280_pressure;Samples;Min_cycle;Max_cycle;Signal;HPM_P1;HPM_P2
2023/01/10 00:00:34;;;;;;;9.98;3.70;;;;;;;6.15;100.00;101147.78;5296967;28;20119;-72
2023/01/10 00:03:10;;;;;;;8.98;3.15;;;;;;;6.15;100.00;101148.63;5293406;28;20020;-73
2023/01/10 00:05:41;;;;;;;14.10;3.97;;;;;;;6.06;100.00;101155.22;5291354;28;20032;-72
2023/01/10 00:08:16;;;;;;;12.23;3.50;;;;;;;6.18;100.00;101160.59;5295036;28;20023;-73
2023/01/10 00:10:47;;;;;;;9.50;3.50;;;;;;;6.01;100.00;101172.03;5293825;28;20107;-72
2023/01/10 00:13:24;;;;;;;12.75;3.30;;;;;;;5.99;100.00;101173.91;5294989;28;20173;-73
2023/01/10 00:15:56;;;;;;;12.20;3.20;;;;;;;5.92;100.00;101172.56;5295187;28;20032;-72
2023/01/10 00:18:27;;;;;;;13.15;3.30;;;;;;;5.90;100.00;101177.81;5293701;28;20031;-72
2023/01/10 00:20:58;;;;;;;11.85;3.47;;;;;;;5.97;100.00;101189.56;5294954;28;20024;-72
2023/01/10 00:23:30;;;;;;;9.18;3.30;;;;;;;5.96;100.00;101197.47;5293530;28;20025;-72
2023/01/10 00:26:01;;;;;;;16.67;3.88;;;;;;;5.96;100.00;101200.06;5295697;28;20111;-73
2023/01/10 00:28:33;;;;;;;14.30;4.05;;;;;;;5.93;100.00;101208.06;5285382;28;20025;-72
2023/01/10 00:31:05;;;;;;;16.02;3.88;;;;;;;5.92;100.00;101220.22;5289124;28;20024;-73
2023/01/10 00:33:37;;;;;;;10.85;3.10;;;;;;;5.88;100.00;101226.50;5292946;28;20016;-72
2023/01/10 00:36:09;;;;;;;10.82;3.22;;;;;;;5.86;100.00;101229.19;5291026;28;20043;-72
2023/01/10 00:38:40;;;;;;;11.18;3.88;;;;;;;5.86;100.00;101225.75;5293483;28;20427;-73
2023/01/10 00:44:05;;;;;;;11.63;3.55;;;;;;;5.77;100.00;101231.50;5262264;28;20067;-73
2023/01/10 00:46:36;;;;;;;13.55;3.70;;;;;;;5.81;100.00;101228.63;5293303;28;20032;-73
2023/01/10 00:49:07;;;;;;;11.15;3.88;;;;;;;5.71;100.00;101231.84;5292675;28;20493;-72
2023/01/10 00:51:39;;;;;;;13.70;5.00;;;;;;;5.75;100.00;101238.53;5294420;28;21427;-72
2023/01/10 00:54:11;;;;;;;12.82;3.83;;;;;;;5.68;100.00;101242.41;5297519;28;20408;-73
2023/01/10 00:56:43;;;;;;;13.13;4.38;;;;;;;5.68;100.00;101237.22;5295133;28;20040;-72
2023/01/10 00:59:14;;;;;;;14.48;3.92;;;;;;;5.70;100.00;101238.81;5298279;28;20012;-72
2023/01/10 01:01:45;;;;;;;9.75;3.75;;;;;;;5.68;100.00;101227.66;5294818;28;20032;-72
2023/01/10 01:04:17;;;;;;;11.63;3.53;;;;;;;5.78;100.00;101246.16;5298037;28;20103;-72
2023/01/10 01:06:49;;;;;;;12.82;3.65;;;;;;;5.80;100.00;101241.72;5299565;28;20036;-72
2023/01/10 01:09:20;;;;;;;11.88;3.55;;;;;;;5.69;100.00;101244.94;5297406;28;20032;-72
2023/01/10 01:11:52;;;;;;;15.02;4.38;;;;;;;5.70;100.00;101253.56;5292237;28;20049;-72
2023/01/10 01:14:24;;;;;;;13.40;4.22;;;;;;;5.64;100.00;101241.75;5299410;28;20035;-72
2023/01/10 01:16:56;;;;;;;13.05;3.88;;;;;;;5.64;100.00;101262.53;5298824;28;20055;-73
2023/01/10 01:19:28;;;;;;;13.23;4.17;;;;;;;5.68;100.00;101276.22;5297393;28;20047;-72
2023/01/10 01:21:59;;;;;;;17.52;5.53;;;;;;;5.65;100.00;101276.41;5295319;28;20344;-72
2023/01/10 01:24:30;;;;;;;16.55;6.63;;;;;;;5.64;100.00;101277.31;5299625;28;20098;-72
2023/01/10 01:27:01;;;;;;;16.92;7.93;;;;;;;5.73;100.00;101282.00;5294576;28;20028;-72
2023/01/10 01:29:33;;;;;;;21.27;9.60;;;;;;;5.69;100.00;101281.34;5296193;28;20024;-73
2023/01/10 01:32:04;;;;;;;24.38;9.90;;;;;;;5.69;100.00;101273.53;5297051;28;20107;-73
2023/01/10 01:34:35;;;;;;;14.93;8.65;;;;;;;5.76;100.00;101297.44;5294636;28;20478;-73
2023/01/10 01:37:07;;;;;;;20.55;9.10;;;;;;;5.77;100.00;101284.31;5291406;28;20027;-73
2023/01/10 01:39:38;;;;;;;16.95;9.55;;;;;;;5.84;100.00;101290.03;5297768;28;20376;-72
2023/01/10 01:42:19;;;;;;;17.52;8.57;;;;;;;6.04;100.00;101305.31;5295108;28;20056;-73
2023/01/10 01:45:08;;;;;;;18.50;8.45;;;;;;;6.12;100.00;101306.63;5296277;28;20028;-73
2023/01/10 01:47:42;;;;;;;23.55;9.00;;;;;;;6.00;100.00;101298.63;5295606;28;20047;-72
2023/01/10 01:50:15;;;;;;;;;;;;;;;6.50;100.00;101313.00;5297894;28;20020;-72
2023/01/10 01:52:50;;;;;;;16.40;6.63;;;;;;;6.11;100.00;101315.38;5295023;28;19919;-72
2023/01/10 01:55:26;;;;;;;19.98;6.47;;;;;;;6.17;100.00;101312.41;5296434;28;20059;-72
2023/01/10 01:57:59;;;;;;;22.83;6.32;;;;;;;6.09;100.00;101324.09;5296766;28;20024;-72
2023/01/10 02:00:31;;;;;;;15.45;6.35;;;;;;;6.02;100.00;101325.41;5292856;28;20059;-72
2023/01/10 02:03:04;;;;;;;18.27;6.78;;;;;;;6.06;100.00;101324.28;5297622;28;20048;-72
2023/01/10 02:05:37;;;;;;;17.25;5.90;;;;;;;6.11;100.00;101323.19;5297376;28;20032;-72
2023/01/10 02:08:10;;;;;;;19.67;5.53;;;;;;;6.08;100.00;101330.22;5296552;28;20031;-72
2023/01/10 02:11:02;;;;;;;16.70;5.45;;;;;;;6.28;100.00;101330.81;5295758;28;20031;-72
2023/01/10 02:13:38;;;;;;;15.55;5.80;;;;;;;6.15;100.00;101329.88;5296064;28;20028;-72
2023/01/10 02:16:10;;;;;;;13.35;5.15;;;;;;;6.11;100.00;101344.00;5295281;28;20040;-73
2023/01/10 02:18:42;;;;;;;18.92;5.00;;;;;;;6.11;100.00;101344.81;5296757;28;20015;-73
2023/01/10 02:21:55;;;;;;;15.80;4.68;;;;;;;6.41;100.00;101338.75;5298726;28;20103;-73
2023/01/10 02:24:49;;;;;;;19.38;5.65;;;;;;;6.29;100.00;101332.50;5296914;28;20099;-73
2023/01/10 02:27:25;;;;;;;11.95;4.80;;;;;;;6.19;100.00;101332.22;5295797;28;20709;-73
2023/01/10 02:30:19;;;;;;;14.25;5.03;;;;;;;6.27;100.00;101335.19;5296704;28;20740;-73
2023/01/10 02:33:04;;;;;;;14.80;3.88;;;;;;;6.21;100.00;101330.38;5294937;28;20530;-72
2023/01/10 02:35:50;;;;;;;15.23;4.68;;;;;;;6.11;100.00;101334.44;5294664;28;20119;-73
2023/01/10 02:38:49;;;;;;;15.02;4.10;;;;;;;6.13;100.00;101329.94;5294905;28;20056;-72
2023/01/10 02:41:32;;;;;;;14.00;3.50;;;;;;;6.07;100.00;101325.97;5296502;28;20051;-72
2023/01/10 02:44:10;;;;;;;13.35;4.18;;;;;;;6.11;100.00;101331.81;5296026;28;20036;-72
2023/01/10 02:46:45;;;;;;;17.15;4.55;;;;;;;6.02;100.00;101332.34;5295363;28;20510;-73
2023/01/10 02:49:16;;;;;;;13.38;3.88;;;;;;;5.93;100.00;101328.50;5296720;28;20449;-73
2023/01/10 02:51:47;;;;;;;14.55;3.85;;;;;;;5.91;100.00;101337.28;5292399;28;20048;-73
2023/01/10 02:54:29;;;;;;;16.00;3.97;;;;;;;5.99;100.00;101340.34;5296676;28;20038;-73
2023/01/10 02:57:15;;;;;;;13.02;3.60;;;;;;;5.86;100.00;101345.34;5294884;28;20464;-73
2023/01/10 03:00:03;;;;;;;20.40;3.70;;;;;;;5.96;100.00;101343.94;5295244;28;20047;-72
2023/01/10 03:02:57;;;;;;;12.98;3.53;;;;;;;5.91;100.00;101350.28;5293707;28;20524;-72
2023/01/10 03:06:10;;;;;;;15.80;3.60;;;;;;;6.04;100.00;101354.75;5294845;28;20452;-72
2023/01/10 03:08:58;;;;;;;13.05;3.90;;;;;;;5.88;100.00;101356.53;5290724;28;20115;-73
2023/01/10 03:11:43;;;;;;;16.60;3.97;;;;;;;5.75;100.00;101376.31;5293927;28;20488;-73
2023/01/10 03:14:18;;;;;;;17.85;4.65;;;;;;;5.77;100.00;101369.28;5296048;28;20024;-73
2023/01/10 03:17:11;;;;;;;14.73;4.25;;;;;;;5.97;100.00;101369.03;5291692;28;20028;-73
2023/01/10 03:19:47;;;;;;;18.08;4.45;;;;;;;5.82;100.00;101377.66;5297360;28;20114;-73
2023/01/10 03:22:19;;;;;;;16.70;3.75;;;;;;;5.80;100.00;101389.94;5296485;28;20075;-73
2023/01/10 03:24:54;;;;;;;14.00;3.78;;;;;;;5.85;100.00;101395.69;5290723;28;20492;-72
2023/01/10 03:28:17;;;;;;;13.13;3.75;;;;;;;6.04;100.00;101401.56;5294670;28;20024;-73
2023/01/10 03:30:54;;;;;;;13.68;4.40;;;;;;;6.00;100.00;101405.25;5252248;28;20074;-72
2023/01/10 03:33:28;;;;;;;14.82;4.18;;;;;;;6.02;100.00;101397.34;5294921;28;20476;-73
2023/01/10 03:36:30;;;;;;;15.98;4.07;;;;;;;6.16;100.00;101407.00;5295152;28;20081;-73
2023/01/10 03:39:14;;;;;;;15.35;5.10;;;;;;;6.03;100.00;101388.66;5296485;28;20023;-73
2023/01/10 03:41:48;;;;;;;12.57;3.55;;;;;;;5.97;100.00;101397.63;5290800;28;20020;-73
2023/01/10 03:44:45;;;;;;;11.23;3.47;;;;;;;6.02;100.00;101406.03;5291680;28;20445;-73
2023/01/10 03:47:41;;;;;;;16.77;4.32;;;;;;;6.20;100.00;101411.91;5302429;28;20527;-73
2023/01/10 03:50:17;;;;;;;15.95;3.80;;;;;;;6.04;100.00;101411.97;5296177;28;20034;-73
2023/01/10 03:52:49;;;;;;;16.00;3.78;;;;;;;6.06;100.00;101412.72;5292260;28;20020;-73
2023/01/10 03:55:24;;;;;;;16.25;3.60;;;;;;;6.14;100.00;101424.44;5296010;28;20081;-73
2023/01/10 03:57:56;;;;;;;14.05;3.53;;;;;;;6.14;100.00;101429.63;5293545;28;20434;-73
2023/01/10 04:00:27;;;;;;;17.15;4.68;;;;;;;6.18;100.00;101433.78;5291132;28;20034;-73
2023/01/10 04:02:58;;;;;;;17.20;4.38;;;;;;;6.19;100.00;101432.84;5294924;28;20039;-73
2023/01/10 04:05:29;;;;;;;16.02;4.22;;;;;;;6.17;100.00;101442.47;5294228;28;20111;-73
2023/01/10 04:08:01;;;;;;;13.45;3.90;;;;;;;6.12;100.00;101440.16;5295201;28;20050;-73
2023/01/10 04:10:32;;;;;;;15.60;4.13;;;;;;;6.04;100.00;101440.56;5293792;28;20382;-73
2023/01/10 04:13:04;;;;;;;16.30;3.70;;;;;;;6.05;100.00;101438.81;5295665;28;20388;-73
2023/01/10 04:15:35;;;;;;;17.90;4.20;;;;;;;6.11;100.00;101450.66;5292340;28;20362;-73
2023/01/10 04:18:06;;;;;;;22.35;4.90;;;;;;;6.15;100.00;101450.38;5295061;28;20081;-73
2023/01/10 04:20:37;;;;;;;20.23;4.88;;;;;;;6.17;100.00;101463.28;5275780;28;20044;-73
2023/01/10 04:23:09;;;;;;;16.92;4.32;;;;;;;6.15;100.00;101462.56;5299757;28;20024;-73
2023/01/10 04:25:40;;;;;;;13.68;3.40;;;;;;;6.04;100.00;101461.38;5298009;28;20024;-73
2023/01/10 04:28:11;;;;;;;18.38;3.85;;;;;;;6.08;100.00;101469.84;5298131;28;20600;-73
2023/01/10 04:30:42;;;;;;;13.95;4.22;;;;;;;6.04;100.00;101469.19;5298286;28;20078;-73
2023/01/10 04:33:14;;;;;;;16.98;4.40;;;;;;;6.08;100.00;101465.50;5298139;28;20162;-72
2023/01/10 04:35:50;;;;;;;16.13;3.42;;;;;;;6.14;100.00;101459.13;5298492;28;20528;-74
2023/01/10 04:38:21;;;;;;;17.20;4.15;;;;;;;6.05;100.00;101463.06;5299205;28;20036;-73
2023/01/10 04:40:55;;;;;;;18.95;4.00;;;;;;;6.05;100.00;101459.63;5299626;28;20028;-73
2023/01/10 04:43:26;;;;;;;18.23;4.40;;;;;;;5.99;100.00;101450.41;5296809;28;20188;-73
2023/01/10 04:45:57;;;;;;;15.55;4.53;;;;;;;6.02;100.00;101449.38;5298649;28;20024;-73
2023/01/10 04:48:29;;;;;;;14.95;3.78;;;;;;;6.02;100.00;101467.59;5295858;28;20054;-73
2023/01/10 04:51:00;;;;;;;19.67;4.25;;;;;;;6.01;100.00;101474.56;5298983;28;20035;-73
2023/01/10 04:53:31;;;;;;;17.00;4.93;;;;;;;6.03;100.00;101479.69;5298494;28;20019;-73
2023/01/10 04:56:04;;;;;;;19.60;4.07;;;;;;;6.06;100.00;101490.75;5298888;28;20035;-73
2023/01/10 04:58:37;;;;;;;18.00;4.15;;;;;;;6.03;100.00;101477.09;5300516;28;20150;-73
2023/01/10 05:01:14;;;;;;;20.15;4.53;;;;;;;6.14;100.00;101469.53;5296354;28;20020;-73
2023/01/10 05:03:47;;;;;;;23.25;5.05;;;;;;;6.07;100.00;101463.00;5297265;28;20028;-73
2023/01/10 05:06:20;;;;;;;14.50;3.63;;;;;;;6.05;100.00;101464.81;5298592;28;20124;-73
2023/01/10 05:08:51;;;;;;;18.63;3.72;;;;;;;6.05;100.00;101472.63;5290799;28;20031;-73
2023/01/10 05:11:23;;;;;;;19.33;4.95;;;;;;;6.05;100.00;101485.63;5295933;28;20027;-73
2023/01/10 05:13:54;;;;;;;15.70;3.50;;;;;;;6.07;100.00;101496.81;5296630;28;20028;-73
2023/01/10 05:16:27;;;;;;;18.25;4.20;;;;;;;6.08;100.00;101498.47;5300129;28;20032;-73
2023/01/10 05:18:58;;;;;;;20.42;4.03;;;;;;;6.15;100.00;101522.41;5296000;28;20035;-73
2023/01/10 05:21:29;;;;;;;16.90;4.70;;;;;;;6.13;100.00;101534.63;5298127;28;20036;-73
2023/01/10 05:24:01;;;;;;;16.25;3.45;;;;;;;6.09;100.00;101524.38;5299583;28;20468;-71
2023/01/10 05:26:32;;;;;;;22.63;4.57;;;;;;;6.11;100.00;101526.09;5295698;28;20396;-71
2023/01/10 05:29:03;;;;;;;21.98;4.75;;;;;;;6.11;100.00;101536.50;5296574;28;20031;-71
2023/01/10 05:31:35;;;;;;;17.40;4.10;;;;;;;6.16;100.00;101534.47;5298165;28;20050;-71
2023/01/10 05:34:06;;;;;;;18.63;4.57;;;;;;;6.20;100.00;101542.00;5299039;28;20049;-71
2023/01/10 05:36:38;;;;;;;26.42;5.40;;;;;;;6.23;100.00;101534.03;5297877;28;20085;-71
2023/01/10 05:39:09;;;;;;;15.35;4.28;;;;;;;6.20;100.00;101535.97;5297276;28;20032;-71
2023/01/10 05:41:40;;;;;;;16.83;3.97;;;;;;;6.20;100.00;101528.16;5298894;28;20024;-71
2023/01/10 05:44:12;;;;;;;19.48;4.60;;;;;;;6.22;100.00;101528.94;5293340;28;20040;-71
2023/01/10 05:46:43;;;;;;;28.17;5.78;;;;;;;6.31;100.00;101542.25;5294916;28;20020;-71
2023/01/10 05:49:14;;;;;;;19.77;5.03;;;;;;;6.28;100.00;101554.59;5297590;28;20032;-71
2023/01/10 05:51:45;;;;;;;18.23;4.45;;;;;;;6.25;100.00;101553.03;5296952;28;20148;-71
2023/01/10 05:54:17;;;;;;;18.95;4.80;;;;;;;6.22;100.00;101550.59;5295386;28;20041;-71
2023/01/10 05:56:48;;;;;;;20.60;4.97;;;;;;;6.23;100.00;101564.44;5298774;28;20029;-71
2023/01/10 05:59:20;;;;;;;19.33;4.57;;;;;;;6.26;100.00;101562.50;5297207;28;20073;-71
2023/01/10 06:01:51;;;;;;;24.90;5.55;;;;;;;6.20;100.00;101565.44;5291550;28;20029;-71
2023/01/10 06:04:22;;;;;;;22.08;4.72;;;;;;;6.25;100.00;101567.78;5297781;28;20032;-71
2023/01/10 06:06:53;;;;;;;15.80;3.67;;;;;;;6.14;100.00;101557.97;5295545;28;20027;-72
2023/01/10 06:09:25;;;;;;;25.52;5.20;;;;;;;6.22;100.00;101567.97;5292463;28;20130;-71
2023/01/10 06:11:56;;;;;;;18.02;4.20;;;;;;;6.23;100.00;101567.03;5295418;28;20089;-71
2023/01/10 06:14:27;;;;;;;22.17;4.40;;;;;;;6.25;100.00;101567.78;5298182;28;20477;-71
2023/01/10 06:16:59;;;;;;;26.75;5.38;;;;;;;6.16;100.00;101543.09;5291830;28;20024;-71
2023/01/10 06:19:30;;;;;;;22.33;4.88;;;;;;;6.20;100.00;101555.03;5295597;28;20024;-71
2023/01/10 06:22:02;;;;;;;18.38;4.93;;;;;;;6.17;100.00;101567.34;5296973;28;20032;-72
2023/01/10 06:24:33;;;;;;;15.73;4.53;;;;;;;6.16;100.00;101566.53;5295255;28;20069;-72
2023/01/10 06:27:05;;;;;;;22.45;5.55;;;;;;;6.16;100.00;101570.88;5296239;28;20020;-72
2023/01/10 06:29:36;;;;;;;29.35;4.63;;;;;;;6.20;100.00;101573.22;5297315;28;20028;-71
2023/01/10 06:32:08;;;;;;;22.40;5.05;;;;;;;6.23;100.00;101564.44;5295168;28;20036;-72
2023/01/10 06:34:39;;;;;;;21.10;5.03;;;;;;;6.23;100.00;101574.84;5295544;28;20016;-72
2023/01/10 06:37:10;;;;;;;19.65;4.82;;;;;;;6.23;100.00;101582.66;5295500;28;20469;-72
2023/01/10 06:39:41;;;;;;;20.08;4.00;;;;;;;6.27;100.00;101584.16;5294826;28;20039;-72
2023/01/10 06:42:13;;;;;;;26.13;4.35;;;;;;;6.18;100.00;101582.06;5295772;28;20065;-72
2023/01/10 06:44:44;;;;;;;17.00;4.28;;;;;;;6.11;100.00;101581.56;5296414;28;20060;-72
2023/01/10 06:47:15;;;;;;;24.10;4.70;;;;;;;6.14;100.00;101593.53;5297891;28;20150;-72
2023/01/10 06:49:47;;;;;;;23.90;4.25;;;;;;;5.91;100.00;101572.19;5298046;28;20059;-72
2023/01/10 06:52:18;;;;;;;20.65;4.47;;;;;;;5.97;100.00;101597.91;5296459;28;20046;-72
2023/01/10 06:54:51;;;;;;;21.70;4.95;;;;;;;5.90;100.00;101604.31;5295929;28;20030;-73
2023/01/10 06:57:23;;;;;;;27.10;4.90;;;;;;;5.83;100.00;101601.22;5298950;28;20039;-72
2023/01/10 06:59:54;;;;;;;20.63;5.05;;;;;;;5.90;100.00;101617.31;5296845;28;20024;-72
2023/01/10 07:02:25;;;;;;;19.45;4.32;;;;;;;5.89;100.00;101615.63;5292580;28;20024;-72
2023/01/10 07:04:57;;;;;;;17.48;4.68;;;;;;;5.79;100.00;101614.44;5294358;28;20024;-72
2023/01/10 07:07:28;;;;;;;17.63;4.28;;;;;;;5.80;100.00;101629.13;5294758;28;20032;-72
2023/01/10 07:09:59;;;;;;;28.75;5.28;;;;;;;5.76;100.00;101635.41;5294815;28;20032;-72
2023/01/10 07:12:30;;;;;;;20.67;4.85;;;;;;;5.84;100.00;101638.47;5291633;28;20035;-72
2023/01/10 07:15:03;;;;;;;18.92;4.35;;;;;;;5.83;100.00;101637.63;5294288;28;20058;-72
2023/01/10 07:17:34;;;;;;;21.00;4.40;;;;;;;5.78;100.00;101651.75;5293836;28;20182;-72
2023/01/10 07:20:06;;;;;;;20.02;4.50;;;;;;;5.86;100.00;101653.03;5292021;28;20437;-72
2023/01/10 07:22:37;;;;;;;19.75;4.65;;;;;;;5.83;100.00;101648.03;5284237;28;20028;-72
2023/01/10 07:25:08;;;;;;;20.63;4.95;;;;;;;5.88;100.00;101665.13;5297341;28;20024;-72
2023/01/10 07:27:42;;;;;;;22.52;5.35;;;;;;;5.87;100.00;101661.66;5293604;28;20039;-72
2023/01/10 07:30:13;;;;;;;;;;;;;;;6.37;100.00;101670.38;5294224;28;20122;-72
2023/01/10 07:32:52;;;;;;;22.85;4.72;;;;;;;5.95;100.00;101666.53;5297053;28;20006;-72
2023/01/10 07:35:24;;;;;;;23.63;6.15;;;;;;;5.90;100.00;101677.13;5296695;28;20024;-72
2023/01/10 07:37:59;;;;;;;17.08;4.05;;;;;;;5.98;100.00;101688.00;5295148;28;20074;-72
2023/01/10 07:40:31;;;;;;;21.38;4.93;;;;;;;5.83;100.00;101688.75;5292194;28;20046;-72
2023/01/10 07:43:02;;;;;;;18.80;4.82;;;;;;;5.78;100.00;101681.19;5296091;28;20035;-72
2023/01/10 07:45:34;;;;;;;25.42;5.28;;;;;;;5.87;100.00;101692.88;5288224;28;20509;-72
2023/01/10 07:48:06;;;;;;;20.13;4.40;;;;;;;5.82;100.00;101695.72;5291866;28;20473;-72
2023/01/10 07:50:37;;;;;;;23.60;4.93;;;;;;;5.70;100.00;101674.72;5296353;28;20678;-72
2023/01/10 07:53:09;;;;;;;21.55;4.85;;;;;;;5.82;100.00;101698.31;5290570;28;20530;-72
2023/01/10 07:55:42;;;;;;;20.25;4.70;;;;;;;5.80;100.00;101704.53;5293978;28;20127;-72
2023/01/10 07:58:13;;;;;;;19.33;4.60;;;;;;;5.85;100.00;101702.53;5297363;28;20023;-72
2023/01/10 08:00:45;;;;;;;23.38;4.35;;;;;;;5.86;100.00;101705.03;5282242;28;20021;-71
2023/01/10 08:03:17;;;;;;;19.35;4.53;;;;;;;5.82;100.00;101702.69;5288692;28;20036;-71
2023/01/10 08:05:48;;;;;;;23.98;4.60;;;;;;;5.78;100.00;101703.75;5295657;28;20036;-72
2023/01/10 08:08:19;;;;;;;18.48;4.32;;;;;;;5.63;100.00;101691.53;5286192;28;20493;-72
2023/01/10 08:10:50;;;;;;;20.45;4.35;;;;;;;5.63;100.00;101707.13;5288115;28;20477;-71
2023/01/10 08:13:22;;;;;;;19.15;4.47;;;;;;;5.59;100.00;101702.09;5290740;28;20504;-72
2023/01/10 08:15:53;;;;;;;24.65;4.95;;;;;;;5.60;100.00;101703.75;5294190;28;20056;-71
2023/01/10 08:18:25;;;;;;;16.90;4.65;;;;;;;5.59;100.00;101696.06;5292932;28;20110;-72
2023/01/10 08:20:57;;;;;;;21.38;4.60;;;;;;;5.61;100.00;101696.84;5292259;28;20077;-72
2023/01/10 08:23:28;;;;;;;18.25;4.70;;;;;;;5.56;100.00;101693.59;5295257;28;20089;-72
2023/01/10 08:26:00;;;;;;;21.75;4.75;;;;;;;5.54;100.00;101698.91;5286730;28;20016;-71
2023/01/10 08:28:32;;;;;;;20.48;5.60;;;;;;;5.55;100.00;101700.56;5287596;28;20119;-71
2023/01/10 08:31:07;;;;;;;17.08;3.70;;;;;;;5.65;100.00;101710.53;5292835;28;20532;-71
2023/01/10 08:33:39;;;;;;;15.07;4.15;;;;;;;5.60;100.00;101703.75;5289940;28;20119;-71
2023/01/10 08:36:18;;;;;;;22.05;4.78;;;;;;;5.51;100.00;101703.41;5295031;28;20024;-72
2023/01/10 08:38:53;;;;;;;23.00;4.18;;;;;;;5.54;100.00;101711.88;5285591;28;20379;-72
2023/01/10 08:41:24;;;;;;;24.45;5.28;;;;;;;5.57;100.00;101706.53;5290596;28;20024;-71
2023/01/10 08:43:56;;;;;;;17.92;3.92;;;;;;;5.63;100.00;101705.38;5295118;28;20122;-72
2023/01/10 08:46:27;;;;;;;17.70;3.80;;;;;;;5.64;100.00;101695.81;5291853;28;20051;-72
2023/01/10 08:48:58;;;;;;;21.83;4.60;;;;;;;5.68;100.00;101703.38;5294214;28;20020;-72
2023/01/10 08:51:29;;;;;;;20.73;4.88;;;;;;;5.68;100.00;101686.94;5292238;28;20028;-72
2023/01/10 08:54:01;;;;;;;17.88;3.90;;;;;;;5.75;100.00;101701.31;5288693;28;20030;-72
2023/01/10 08:56:34;;;;;;;25.30;6.07;;;;;;;5.74;100.00;101704.84;5292289;28;20032;-72
2023/01/10 08:59:07;;;;;;;15.25;4.32;;;;;;;5.73;100.00;101697.97;5295157;28;20787;-71
2023/01/10 09:01:38;;;;;;;20.33;4.38;;;;;;;5.80;100.00;101702.78;5289672;28;20024;-71
2023/01/10 09:04:09;;;;;;;22.08;5.05;;;;;;;5.86;100.00;101694.66;5285431;28;20032;-71
2023/01/10 09:06:41;;;;;;;16.83;4.05;;;;;;;5.91;100.00;101699.63;5294962;28;20427;-72
2023/01/10 09:09:12;;;;;;;18.55;4.30;;;;;;;5.91;100.00;101689.22;5298103;28;20388;-72
2023/01/10 09:11:43;;;;;;;20.92;4.82;;;;;;;5.96;100.00;101689.03;5298560;28;20035;-72
2023/01/10 09:14:15;;;;;;;28.70;4.75;;;;;;;5.99;100.00;101689.69;5285626;28;20028;-71
2023/01/10 09:16:50;;;;;;;19.20;3.97;;;;;;;6.04;100.00;101685.09;5292547;28;20104;-72
2023/01/10 09:19:21;;;;;;;21.33;4.43;;;;;;;6.02;100.00;101684.34;5296356;28;20347;-72
2023/01/10 09:21:52;;;;;;;27.73;4.93;;;;;;;6.07;100.00;101682.34;5294598;28;20024;-72
2023/01/10 09:24:24;;;;;;;20.33;4.53;;;;;;;6.02;100.00;101679.13;5292052;28;20477;-71
2023/01/10 09:26:55;;;;;;;24.30;5.30;;;;;;;6.13;100.00;101685.53;5292849;28;20512;-72
2023/01/10 09:29:26;;;;;;;21.33;4.85;;;;;;;6.17;100.00;101684.44;5288147;28;20020;-71
2023/01/10 09:31:58;;;;;;;20.60;4.55;;;;;;;6.22;100.00;101685.88;5292675;28;20031;-72
2023/01/10 09:34:29;;;;;;;17.27;4.15;;;;;;;6.20;100.00;101681.69;5295126;28;20013;-72
2023/01/10 09:37:00;;;;;;;26.98;5.57;;;;;;;6.25;100.00;101690.06;5295961;28;20024;-72
2023/01/10 09:39:32;;;;;;;17.88;4.35;;;;;;;6.36;100.00;101684.28;5295899;28;20012;-72
2023/01/10 09:42:28;;;;;;;24.23;4.72;;;;;;;6.58;100.00;101677.84;5295933;28;20024;-72
2023/01/10 09:45:41;;;;;;;21.55;5.53;;;;;;;6.52;100.00;101683.41;5295009;28;20036;-72
2023/01/10 09:48:38;;;;;;;25.23;5.50;;;;;;;6.74;100.00;101688.28;5241290;28;20062;-72
2023/01/10 09:51:35;;;;;;;20.02;4.55;;;;;;;6.68;100.00;101687.78;5294557;28;20031;-72
2023/01/10 09:54:14;;;;;;;16.83;4.07;;;;;;;6.52;100.00;101682.56;5291779;28;20493;-72
2023/01/10 09:56:46;;;;;;;16.90;4.32;;;;;;;6.55;100.00;101677.16;5288903;28;20478;-72
2023/01/10 09:59:22;;;;;;;19.58;4.05;;;;;;;6.54;100.00;101670.28;5288888;28;20058;-72
2023/01/10 10:02:03;;;;;;;17.55;4.32;;;;;;;6.54;100.00;101670.28;5292079;28;20028;-72
2023/01/10 10:04:38;;;;;;;16.20;3.67;;;;;;;6.59;100.00;101681.28;5295603;28;20024;-71
2023/01/10 10:07:13;;;;;;;22.00;4.85;;;;;;;6.64;100.00;101686.25;5295372;28;20030;-72
2023/01/10 10:09:44;;;;;;;21.60;4.70;;;;;;;6.61;100.00;101681.22;5293244;28;20035;-72
2023/01/10 10:12:34;;;;;;;17.60;4.38;;;;;;;6.91;100.00;101678.69;5292466;28;20461;-72
2023/01/10 10:15:21;;;;;;;21.45;4.53;;;;;;;6.88;100.00;101666.66;5291240;28;20035;-72
2023/01/10 10:18:09;;;;;;;20.17;3.72;;;;;;;6.79;100.00;101661.97;5288183;28;20052;-72
2023/01/10 10:21:09;;;;;;;19.75;4.40;;;;;;;7.04;100.00;101664.03;5287763;28;20044;-72
2023/01/10 10:24:12;;;;;;;17.92;4.03;;;;;;;6.97;100.00;101652.28;5283066;28;20050;-72
2023/01/10 10:26:52;;;;;;;15.48;3.75;;;;;;;7.04;100.00;101659.66;5288862;28;20033;-72
2023/01/10 10:29:38;;;;;;;16.88;4.07;;;;;;;7.07;100.00;101654.28;5289540;28;20525;-72
2023/01/10 10:32:09;;;;;;;17.83;3.38;;;;;;;6.99;100.00;101661.69;5295201;28;20012;-72
2023/01/10 10:34:48;;;;;;;17.87;3.53;;;;;;;7.13;100.00;101660.06;5294802;28;20036;-72
2023/01/10 10:37:25;;;;;;;22.08;3.97;;;;;;;7.13;100.00;101641.84;5287963;28;20309;-72
2023/01/10 10:40:04;;;;;;;20.58;3.80;;;;;;;7.19;100.00;101631.03;5284042;28;20027;-72
2023/01/10 10:42:38;;;;;;;19.77;4.00;;;;;;;7.12;100.00;101614.06;5293900;28;20516;-72
2023/01/10 10:45:27;;;;;;;17.48;3.88;;;;;;;7.33;100.00;101628.47;5273917;28;20473;-72
2023/01/10 10:48:10;;;;;;;18.13;4.15;;;;;;;7.29;100.00;101621.75;5270899;28;20032;-72
2023/01/10 10:51:04;;;;;;;13.48;3.53;;;;;;;7.59;100.00;101620.88;5254463;28;20039;-72
2023/01/10 10:53:35;;;;;;;15.50;3.03;;;;;;;7.30;100.00;101621.66;5260622;28;20033;-72
2023/01/10 10:56:14;;;;;;;19.60;4.03;;;;;;;7.41;100.00;101601.97;5273309;28;20051;-72
2023/01/10 10:58:49;;;;;;;18.10;3.40;;;;;;;7.36;100.00;101602.22;5273797;28;20027;-72
2023/01/10 11:01:21;;;;;;;18.83;3.97;;;;;;;7.44;100.00;101599.16;5272189;28;20044;-72
2023/01/10 11:04:12;;;;;;;21.88;4.13;;;;;;;7.65;100.00;101594.41;5274908;28;20024;-72
2023/01/10 11:06:47;;;;;;;15.30;3.13;;;;;;;7.44;100.00;101591.34;5270581;28;20032;-72
2023/01/10 11:09:30;;;;;;;11.90;2.83;;;;;;;7.51;100.00;101580.47;5255193;28;20036;-72
2023/01/10 11:12:02;;;;;;;18.15;4.05;;;;;;;7.53;100.00;101589.00;5272355;28;20033;-72
2023/01/10 11:15:00;;;;;;;14.63;3.22;;;;;;;7.82;100.00;101585.59;5266333;28;20517;-72
2023/01/10 11:17:39;;;;;;;17.77;4.72;;;;;;;7.52;100.00;101576.91;5262905;28;20048;-72
2023/01/10 11:20:15;;;;;;;14.82;4.10;;;;;;;7.62;100.00;101576.38;5268337;28;20029;-72
2023/01/10 11:22:52;;;;;;;15.55;4.50;;;;;;;7.65;100.00;101576.16;5267822;28;20111;-72
2023/01/10 11:25:24;;;;;;;17.67;4.13;;;;;;;7.67;100.00;101580.38;5269394;28;20022;-72
2023/01/10 11:28:04;;;;;;;18.02;4.88;;;;;;;7.82;100.00;101576.00;5267617;28;20037;-72
2023/01/10 11:30:36;;;;;;;22.98;4.53;;;;;;;7.67;100.00;101566.50;5264767;28;20036;-72
2023/01/10 11:33:20;;;;;;;18.88;3.95;;;;;;;7.93;100.00;101570.94;5269431;28;20035;-72
2023/01/10 11:36:14;;;;;;;15.88;4.38;;;;;;;8.00;100.00;101574.03;5266656;28;20032;-72
2023/01/10 11:39:01;;;;;;;19.33;5.18;;;;;;;7.93;100.00;101573.56;5268929;28;20033;-72
2023/01/10 11:41:33;;;;;;;26.10;4.70;;;;;;;7.70;100.00;101559.31;5273381;28;20037;-72
2023/01/10 11:44:23;;;;;;;21.60;4.65;;;;;;;7.99;100.00;101572.31;5286818;28;20195;-72
2023/01/10 11:46:58;;;;;;;17.95;4.63;;;;;;;7.86;100.00;101572.25;5294692;28;20495;-72
2023/01/10 11:49:36;;;;;;;20.20;4.55;;;;;;;7.87;100.00;101566.09;5292609;28;20039;-72
2023/01/10 11:52:34;;;;;;;15.05;4.72;;;;;;;8.20;100.00;101557.94;5293455;28;20051;-72
2023/01/10 11:55:06;;;;;;;23.38;6.20;;;;;;;7.92;100.00;101556.22;5289956;28;20051;-72
2023/01/10 11:57:37;;;;;;;17.33;5.38;;;;;;;7.86;100.00;101561.81;5293663;28;20070;-72